Data for 06/25/2006

Time Sea-Level Adjusted Pressure Absolute Pressure Temperature Relative Humidity Dew Point   
(mb) (inHg) (mb) (inHg) (C) (F) (%) (C) (F)
00:05 1030 30.42 859 25.37 16.9 62.4 38 2.7 36.9
00:10 1030 30.42 859 25.37 16.9 62.4 39 2.8 37
00:15 1030 30.42 859 25.37 16.9 62.3 39 2.9 37.1
00:20 1030 30.42 859 25.37 16.7 62.1 39 2.7 36.9
00:25 1030 30.42 859 25.37 16.7 62.1 39 2.9 37.2
00:30 1030 30.42 859 25.37 16.7 62 39 2.9 37.2
00:35 1030 30.42 859 25.37 16.6 61.9 40 2.9 37.2
00:40 1030 30.42 859 25.37 16.5 61.7 40 3.1 37.6
00:45 1030 30.42 859 25.37 16.3 61.4 41 3.1 37.6
00:50 1030 30.42 859 25.37 16.3 61.3 40 2.9 37.3
00:55 1030 30.42 859 25.37 16.3 61.4 41 3.1 37.5
01:00 1030 30.42 859 25.37 16.2 61.2 41 3 37.3
01:05 1030 30.42 859 25.37 16.2 61.2 41 3.2 37.7
01:10 1030 30.42 859 25.37 16.1 60.9 41 3.1 37.5
01:15 1030 30.42 859 25.37 15.9 60.7 42 3.2 37.7
01:20 1030 30.42 859 25.37 15.9 60.6 42 3.2 37.8
01:25 1030 30.42 859 25.37 15.8 60.5 43 3.3 37.9
01:30 1030 30.42 859 25.37 15.7 60.3 42 3.1 37.6
01:35 1030 30.42 859 25.37 15.8 60.4 42 3.1 37.6
01:40 1029 30.39 859 25.37 15.7 60.3 43 3.2 37.8
01:45 1030 30.42 859 25.37 15.6 60.1 44 3.5 38.2
01:50 1030 30.42 859 25.37 15.5 59.9 44 3.4 38.1
01:55 1030 30.42 859 25.37 15.4 59.7 44 3.4 38.1
02:00 1030 30.42 859 25.37 15.3 59.5 44 3.2 37.8
02:05 1030 30.42 859 25.37 15.3 59.5 44 3.3 37.9
02:10 1030 30.42 859 25.37 15.3 59.5 44 3.2 37.7
02:15 1030 30.42 859 25.37 15.3 59.5 44 3.1 37.6
02:20 1030 30.42 859 25.37 15.3 59.5 44 3.1 37.7
02:25 1030 30.42 859 25.37 15.2 59.4 44 3 37.5
02:30 1030 30.42 859 25.37 15.2 59.4 44 3.1 37.6
02:35 1030 30.42 859 25.37 15.1 59.1 44 3.1 37.6
02:40 1030 30.42 859 25.37 15 59 45 3.1 37.7
02:45 1030 30.42 859 25.37 14.9 58.9 45 3.2 37.7
02:50 1030 30.42 859 25.37 14.9 58.8 45 3.1 37.6
02:55 1030 30.42 859 25.37 14.9 58.8 45 3.1 37.6
03:00 1029 30.39 859 25.37 14.8 58.7 45 3.1 37.6
03:05 1029 30.39 859 25.37 14.8 58.6 45 3 37.4
03:10 1030 30.42 859 25.37 14.8 58.6 45 3 37.5
03:15 1030 30.42 859 25.37 14.7 58.4 45 3 37.5
03:20 1030 30.42 859 25.37 14.6 58.2 46 3.1 37.5
03:25 1030 30.42 859 25.37 14.6 58.3 46 3.1 37.5
03:30 1030 30.42 859 25.37 14.5 58.1 45 3 37.3
03:35 1030 30.42 859 25.37 14.5 58.1 45 2.9 37.3
03:40 1029 30.39 859 25.37 14.6 58.2 45 2.8 37
03:45 1030 30.42 859 25.37 14.7 58.4 45 2.9 37.2
03:50 1030 30.42 859 25.37 14.5 58.2 45 3 37.4
03:55 1030 30.42 859 25.37 14.5 58.1 45 2.8 37
04:00 1030 30.42 859 25.37 14.4 58 46 2.9 37.2
04:05 1030 30.42 859 25.37 14.4 57.9 45 2.8 37
04:10 1030 30.42 859 25.37 14.4 58 45 2.8 37
04:15 1030 30.42 859 25.37 14.4 57.9 45 2.7 36.9
04:20 1030 30.42 859 25.37 14.4 57.9 45 2.8 37
04:25 1030 30.42 859 25.37 14.3 57.8 45 2.7 36.8
04:30 1030 30.42 859 25.37 14.3 57.7 46 2.8 37
04:35 1030 30.42 859 25.37 14.1 57.4 46 2.7 36.9
04:40 1030 30.42 859 25.37 14.1 57.4 46 2.8 37
04:45 1030 30.42 859 25.37 14.1 57.4 46 2.7 36.9
04:50 1030 30.42 859 25.37 14.1 57.3 47 2.9 37.2
04:55 1030 30.42 859 25.37 13.9 57.1 47 2.8 37
05:00 1030 30.42 859 25.37 13.8 56.9 47 2.9 37.1
05:05 1030 30.42 859 25.37 13.6 56.6 48 2.9 37.3
05:10 1030 30.42 859 25.37 13.5 56.2 48 2.9 37.2
05:15 1030 30.42 859 25.37 13.3 55.9 49 3 37.3
05:20 1030 30.42 859 25.37 13.2 55.8 50 3 37.4
05:25 1030 30.42 859 25.37 13.1 55.5 50 2.8 37.1
05:30 1030 30.42 859 25.37 13.1 55.5 50 2.8 37.1
05:35 1030 30.42 859 25.37 13 55.4 50 3 37.4
05:40 1030 30.42 859 25.37 12.8 55.1 51 3 37.3
05:45 1030 30.42 859 25.37 12.9 55.2 50 2.9 37.2
05:50 1030 30.42 859 25.37 13.1 55.5 49 2.6 36.7
05:55 1030 30.42 859 25.37 13.4 56.2 47 2.5 36.4
06:00 1030 30.42 859 25.37 13.7 56.6 47 2.6 36.6
06:05 1030 30.42 859 25.37 13.8 56.8 47 2.8 37.1
06:10 1030 30.42 859 25.37 13.9 56.9 47 2.7 36.8
06:15 1030 30.42 859 25.37 13.8 56.8 47 2.8 37
06:20 1030 30.42 859 25.37 13.7 56.7 48 3 37.4
06:25 1030 30.42 859 25.37 13.4 56.2 49 3 37.5
06:30 1030 30.42 859 25.37 13.4 56.1 50 3.3 38
06:35 1030 30.42 859 25.37 13.3 55.9 50 3.2 37.8
06:40 1030 30.42 859 25.37 13.4 56.1 50 3.2 37.7
06:45 1030 30.42 859 25.37 13.5 56.4 49 3.2 37.7
06:50 1030 30.42 859 25.37 13.7 56.7 50 3.5 38.3
06:55 1030 30.42 859 25.37 13.7 56.7 49 3.4 38.1
07:00 1030 30.42 859 25.37 14 57.1 49 3.5 38.3
07:05 1030 30.42 859 25.37 14.1 57.4 48 3.5 38.2
07:10 1030 30.42 859 25.37 14.1 57.3 50 4 39.2
07:15 1030 30.42 859 25.37 14.1 57.3 51 4.1 39.3
07:20 1030 30.42 859 25.37 14.3 57.8 48 3.6 38.5
07:25 1030 30.42 859 25.37 14.8 58.6 48 3.9 39.1
07:30 1030 30.42 859 25.37 15 59 46 3.7 38.6
07:35 1030 30.42 859 25.37 15.2 59.3 46 3.6 38.6
07:40 1030 30.42 859 25.37 15.3 59.5 44 3.3 38
07:45 1030 30.42 859 25.37 15.5 59.8 44 3.4 38
07:50 1030 30.42 859 25.37 15.6 60.2 44 3.5 38.3
07:55 1030 30.42 859 25.37 15.8 60.5 44 3.7 38.7
08:00 1030 30.42 859 25.37 16.1 60.9 43 3.7 38.7
08:05 1030 30.42 859 25.37 16.3 61.3 43 3.7 38.7
08:10 1030 30.42 859 25.37 16.6 61.8 42 3.7 38.7
08:15 1030 30.42 859 25.37 16.8 62.3 42 3.9 38.9
08:20 1030 30.42 859 25.37 17 62.5 41 3.7 38.7
08:25 1030 30.42 859 25.37 17.1 62.7 40 3.5 38.2
08:30 1030 30.42 859 25.37 17.2 62.9 40 3.6 38.4
08:35 1030 30.42 859 25.37 17.4 63.3 40 3.8 38.8
08:40 1030 30.42 859 25.37 17.5 63.6 41 4.3 39.7
08:45 1030 30.42 859 25.37 17.8 64 40 4 39.3
08:50 1030 30.42 859 25.37 17.9 64.1 40 4.1 39.4
08:55 1030 30.42 859 25.37 18 64.3 38 3.8 38.8
09:00 1030 30.42 859 25.37 18.2 64.8 39 4.1 39.4
09:05 1030 30.42 859 25.37 18.2 64.8 39 4.4 39.8
09:10 1030 30.42 859 25.37 18.5 65.3 38 4.1 39.4
09:15 1030 30.42 859 25.37 18.7 65.6 38 4.1 39.3
09:20 1030 30.42 859 25.37 19.2 66.5 38 4.5 40.1
09:25 1030 30.42 859 25.37 19.2 66.5 39 5 40.9
09:30 1030 30.42 859 25.37 19.2 66.6 39 5 41
09:35 1030 30.42 859 25.37 19.6 67.2 37 4.7 40.4
09:40 1030 30.42 859 25.37 19.6 67.3 37 4.8 40.7
09:45 1030 30.42 859 25.37 19.8 67.6 37 4.7 40.4
09:50 1030 30.42 859 25.37 20 68 35 4.4 40
09:55 1030 30.42 859 25.37 20.2 68.4 36 4.9 40.8
10:00 1030 30.42 859 25.37 20.3 68.5 35 4.6 40.3
10:05 1030 30.42 859 25.37 20.7 69.3 35 4.7 40.4
10:10 1030 30.42 859 25.37 20.8 69.5 34 4.8 40.6
10:15 1030 30.42 859 25.37 20.7 69.3 34 4.5 40.1
10:20 1030 30.42 859 25.37 20.8 69.5 34 4.4 39.9
10:25 1030 30.42 859 25.37 21.3 70.3 33 4.6 40.2
10:30 1030 30.42 859 25.37 21.4 70.6 33 4.7 40.5
10:35 1030 30.42 859 25.37 21.5 70.7 34 5.1 41.1
10:40 1030 30.42 859 25.37 21.5 70.7 36 5.9 42.7
10:45 1030 30.42 859 25.37 21.5 70.7 33 4.7 40.4
10:50 1030 30.42 859 25.37 21.8 71.3 34 5.4 41.7
10:55 1030 30.42 859 25.37 22.1 71.8 33 5.2 41.4
11:00 1030 30.42 859 25.37 22.1 71.9 36 6.4 43.5
11:05 1030 30.42 859 25.37 22.2 72 34 5.8 42.4
11:10 1030 30.42 859 25.37 22.1 71.7 34 5.8 42.4
11:15 1030 30.42 859 25.37 22.5 72.5 33 5.8 42.4
11:20 1030 30.42 859 25.37 22.8 73 30 4.5 40.1
11:25 1030 30.42 859 25.37 22.6 72.7 32 5.1 41.1
11:30 1029 30.39 859 25.37 22.8 73.1 29 4.3 39.7
11:35 1029 30.39 859 25.37 22.7 72.9 31 4.8 40.7
11:40 1030 30.42 859 25.37 22.7 72.8 30 4.2 39.6
11:45 1030 30.42 859 25.37 23 73.4 29 4.3 39.7
11:50 1029 30.39 859 25.37 23.1 73.5 28 4 39.2
11:55 1029 30.39 859 25.37 23 73.5 31 5.1 41.2
12:00 1029 30.39 859 25.37 23.3 73.9 30 4.7 40.5
12:05 1029 30.39 858 25.34 23 73.5 29 4.3 39.8
12:10 1029 30.39 858 25.34 23.4 74 29 4.6 40.3
12:15 1029 30.39 858 25.34 23.3 73.9 30 4.8 40.7
12:20 1029 30.39 858 25.34 23.4 74.1 28 4.1 39.4
12:25 1029 30.39 858 25.34 23.6 74.4 29 4.9 40.8
12:30 1029 30.39 858 25.34 23.2 73.7 30 5 41.1
12:35 1029 30.39 858 25.34 23.5 74.3 29 4.7 40.5
12:40 1029 30.39 858 25.34 23.6 74.5 29 4.6 40.3
12:45 1029 30.39 858 25.34 23.8 74.8 29 5.1 41.2
12:50 1029 30.39 858 25.34 23.6 74.5 29 4.6 40.3
12:55 1029 30.39 858 25.34 24.2 75.6 28 4.6 40.3
13:00 1029 30.39 858 25.34 24.1 75.4 27 4.4 40
13:05 1029 30.39 858 25.34 23.9 75 29 4.8 40.6
13:10 1029 30.39 858 25.34 24.3 75.7 28 4.8 40.7
13:15 1029 30.39 858 25.34 24.2 75.6 27 4.3 39.7
13:20 1029 30.39 858 25.34 24.2 75.5 27 4.3 39.8
13:25 1029 30.39 858 25.34 24.5 76.2 27 4.8 40.6
13:30 1029 30.39 858 25.34 25 77 26 4.6 40.2
13:35 1029 30.39 858 25.34 25.2 77.4 25 4.1 39.4
13:40 1029 30.39 858 25.34 25.2 77.3 26 4.7 40.5
13:45 1029 30.39 858 25.34 25 77.1 26 4.5 40
13:50 1029 30.39 858 25.34 25.2 77.4 26 4.8 40.7
13:55 1029 30.39 858 25.34 25.2 77.4 26 4.6 40.3
14:00 1029 30.39 858 25.34 25.2 77.4 26 4.6 40.3
14:05 1029 30.39 858 25.34 25.2 77.4 25 4.3 39.7
14:10 1029 30.39 858 25.34 25.3 77.5 26 4.4 40
14:15 1029 30.39 858 25.34 25.5 78 26 4.8 40.7
14:20 1029 30.39 858 25.34 25.6 78 25 4.4 39.9
14:25 1028 30.36 858 25.34 25.8 78.5 25 4.5 40
14:30 1028 30.36 858 25.34 25.3 77.5 27 5.1 41.1
14:35 1028 30.36 858 25.34 25.6 78.1 25 4.4 39.9
14:40 1028 30.36 858 25.34 25.9 78.6 25 4.7 40.5
14:45 1028 30.36 858 25.34 25.5 78 25 4.4 40
14:50 1028 30.36 858 25.34 25.6 78.1 25 4.3 39.7
14:55 1028 30.36 858 25.34 25.6 78.2 25 4.4 40
15:00 1028 30.36 857 25.31 25.5 77.9 26 5 41.1
15:05 1028 30.36 857 25.31 25.6 78.1 25 4.3 39.8
15:10 1028 30.36 857 25.31 26.1 79 24 4.2 39.5
15:15 1028 30.36 857 25.31 25.9 78.6 25 4.7 40.4
15:20 1028 30.36 857 25.31 26.1 78.9 25 4.9 40.8
15:25 1028 30.36 857 25.31 26 78.9 23 3.6 38.4
15:30 1028 30.36 857 25.31 26 78.8 24 4.2 39.6
15:35 1028 30.36 857 25.31 26.3 79.3 24 4.6 40.2
15:40 1028 30.36 857 25.31 26.3 79.4 25 5.2 41.4
15:45 1028 30.36 857 25.31 26.6 79.9 24 4.7 40.5
15:50 1028 30.36 857 25.31 26.6 79.9 25 5.1 41.3
15:55 1028 30.36 857 25.31 26.5 79.8 24 4.4 39.8
16:00 1028 30.36 857 25.31 26.7 80 24 4.9 40.9
16:05 1028 30.36 857 25.31 26.5 79.6 24 4.3 39.7
16:10 1028 30.36 857 25.31 26.7 80.1 24 4.6 40.3
16:15 1028 30.36 857 25.31 26.7 80 23 4.3 39.7
16:20 1028 30.36 857 25.31 26.9 80.3 24 5 41
16:25 1028 30.36 857 25.31 26.9 80.5 24 4.9 40.9
16:30 1028 30.36 857 25.31 26.6 79.9 24 4.6 40.2
16:35 1028 30.36 857 25.31 26.8 80.2 23 4.4 40
16:40 1028 30.36 857 25.31 27.1 80.7 23 4.6 40.3
16:45 1027 30.33 857 25.31 27.2 80.9 23 4.3 39.8
16:50 1027 30.33 857 25.31 27 80.5 24 4.8 40.7
16:55 1027 30.33 857 25.31 26.9 80.4 24 4.8 40.6
17:00 1027 30.33 857 25.31 27 80.6 24 4.9 40.8
17:05 1027 30.33 857 25.31 27.1 80.8 24 5.2 41.4
17:10 1027 30.33 856 25.28 27.1 80.8 24 5.2 41.3
17:15 1027 30.33 856 25.28 27.1 80.7 24 5 41.1
17:20 1027 30.33 856 25.28 27 80.7 24 4.8 40.6
17:25 1027 30.33 856 25.28 26.9 80.4 23 4.3 39.7
17:30 1027 30.33 856 25.28 26.6 79.9 23 4.1 39.3
17:35 1027 30.33 856 25.28 26.7 80 23 4.4 39.9
17:40 1027 30.33 856 25.28 26.6 79.8 23 4.3 39.8
17:45 1027 30.33 856 25.28 26.6 79.9 24 4.4 40
17:50 1027 30.33 856 25.28 26.7 80 24 4.6 40.4
17:55 1027 30.33 856 25.28 26.4 79.5 23 4.1 39.4
18:00 1027 30.33 856 25.28 26.1 79 24 4.1 39.3
18:05 1027 30.33 856 25.28 26.1 79.1 24 4.3 39.7
18:10 1027 30.33 856 25.28 26.1 78.9 24 4.3 39.7
18:15 1027 30.33 856 25.28 26 78.7 24 4.2 39.5
18:20 1027 30.33 856 25.28 25.8 78.5 25 4.3 39.8
18:25 1027 30.33 856 25.28 26.1 79 24 4.1 39.3
18:30 1027 30.33 856 25.28 25.8 78.4 24 4.2 39.5
18:35 1027 30.33 856 25.28 25.6 78.1 24 4 39.1
18:40 1027 30.33 856 25.28 25.6 78.1 26 4.8 40.6
18:45 1027 30.33 856 25.28 25.9 78.6 26 5 41.1
18:50 1027 30.33 856 25.28 25.9 78.6 25 4.5 40.1
18:55 1027 30.33 856 25.28 25.5 77.9 26 4.9 40.7
19:00 1027 30.33 856 25.28 25.3 77.6 26 4.8 40.7
19:05 1027 30.33 856 25.28 25.2 77.4 26 4.5 40.1
19:10 1027 30.33 856 25.28 25.1 77.1 27 4.9 40.9
19:15 1027 30.33 856 25.28 25 77 26 4.5 40.1
19:20 1027 30.33 856 25.28 24.9 76.8 26 4.5 40
19:25 1027 30.33 856 25.28 24.8 76.6 25 3.9 39
19:30 1027 30.33 856 25.28 24.6 76.3 27 4.8 40.6
19:35 1027 30.33 856 25.28 24.4 75.9 28 5 41
19:40 1027 30.33 856 25.28 24.3 75.7 28 4.8 40.6
19:45 1027 30.33 856 25.28 24.1 75.4 28 4.9 40.8
19:50 1027 30.33 856 25.28 24 75.2 28 4.6 40.4
19:55 1027 30.33 856 25.28 23.8 74.9 28 4.5 40.1
20:00 1027 30.33 856 25.28 23.7 74.7 29 4.8 40.6
20:05 1027 30.33 856 25.28 23.6 74.4 29 4.7 40.4
20:10 1027 30.33 856 25.28 23.4 74 29 4.4 39.9
20:15 1027 30.33 856 25.28 23.3 73.9 28 4.1 39.5
20:20 1027 30.33 856 25.28 23.2 73.7 29 4.3 39.8
20:25 1027 30.33 856 25.28 22.9 73.3 30 4.4 40
20:30 1027 30.33 856 25.28 22.8 73.1 29 3.9 39.1
20:35 1027 30.33 856 25.28 22.7 72.9 29 4.1 39.4
20:40 1027 30.33 856 25.28 22.6 72.7 29 4 39.2
20:45 1027 30.33 856 25.28 22.6 72.7 29 4 39.2
20:50 1027 30.33 856 25.28 22.5 72.4 29 3.9 39
20:55 1027 30.33 856 25.28 22.3 72.2 29 3.8 38.8
21:00 1027 30.33 856 25.28 22.1 71.8 30 4 39.2
21:05 1027 30.33 856 25.28 21.9 71.5 31 4.1 39.4
21:10 1027 30.33 857 25.31 21.7 71 31 4.2 39.5
21:15 1027 30.33 857 25.31 21.4 70.5 32 4.1 39.4
21:20 1027 30.33 857 25.31 21.3 70.4 32 3.9 39.1
21:25 1027 30.33 857 25.31 21.3 70.4 32 4.1 39.3
21:30 1027 30.33 857 25.31 21.2 70.1 32 4 39.2
21:35 1027 30.33 857 25.31 21.1 70 32 3.8 38.8
21:40 1028 30.36 857 25.31 21.1 70 32 4.1 39.4
21:45 1028 30.36 857 25.31 21 69.8 33 4.1 39.4
21:50 1028 30.36 857 25.31 20.8 69.4 33 4.2 39.5
21:55 1028 30.36 857 25.31 20.7 69.3 33 4.1 39.3
22:00 1028 30.36 857 25.31 20.7 69.2 33 4.1 39.4
22:05 1028 30.36 857 25.31 20.6 69 34 4.2 39.5
22:10 1028 30.36 857 25.31 20.5 68.9 33 3.9 39.1
22:15 1028 30.36 857 25.31 20.6 69.1 33 3.9 39
22:20 1028 30.36 857 25.31 20.5 69 33 3.9 39.1
22:25 1028 30.36 857 25.31 20.5 68.9 33 3.9 39.1
22:30 1028 30.36 857 25.31 20.4 68.8 33 3.9 39
22:35 1028 30.36 857 25.31 20.4 68.8 33 4 39.2
22:40 1028 30.36 857 25.31 20.3 68.6 33 3.9 39
22:45 1028 30.36 857 25.31 20.3 68.5 33 3.8 38.9
22:50 1028 30.36 857 25.31 20.3 68.5 34 3.9 39.1
22:55 1028 30.36 857 25.31 20.1 68.3 34 3.9 39.1
23:00 1028 30.36 857 25.31 20 68.1 33 3.6 38.5
23:05 1028 30.36 857 25.31 20.2 68.4 33 3.5 38.3
23:10 1028 30.36 857 25.31 20.3 68.5 33 3.7 38.6
23:15 1028 30.36 857 25.31 20.2 68.3 34 3.8 38.9
23:20 1028 30.36 857 25.31 20 68.1 33 3.6 38.5
23:25 1028 30.36 857 25.31 19.9 67.9 34 3.8 38.9
23:30 1028 30.36 857 25.31 19.9 67.7 34 3.8 38.8
23:35 1028 30.36 857 25.31 19.7 67.5 34 3.7 38.7
23:40 1028 30.36 857 25.31 19.6 67.4 34 3.6 38.5
23:45 1028 30.36 857 25.31 19.6 67.3 34 3.5 38.3
23:50 1028 30.36 857 25.31 19.7 67.4 34 3.5 38.2
23:55 1028 30.36 857 25.31 19.6 67.3 34 3.5 38.3
24:00 1028 30.36 857 25.31 19.5 67.2 34 3.4 38.1